Time;durP1;ratioP1;P1;durP2;ratioP2;P2;SDS_P1;SDS_P2;PMS_P1;PMS_P2;Temp;Humidity;BMP_temperature;BMP_pressure;BME280_temperature;BME280_humidity;BME280_pressure;Samples;Min_cycle;Max_cycle;Signal;HPM_P1;HPM_P2
2023/06/01 00:02:13;;;;;;;;;5.00;5.00;;;;;13.32;68.92;102489.84;5044945;28;10641;-67
2023/06/01 00:04:40;;;;;;;;;8.25;7.00;;;;;13.28;69.26;102493.91;5060640;28;9827;-68
2023/06/01 00:07:08;;;;;;;;;7.25;6.50;;;;;13.34;69.61;102485.13;5056310;28;9905;-67
2023/06/01 00:09:34;;;;;;;;;5.00;5.00;;;;;13.38;69.39;102491.03;5067187;28;9673;-66
2023/06/01 00:12:01;;;;;;;;;6.75;6.75;;;;;13.33;69.60;102489.69;5061201;28;10370;-66
2023/06/01 00:14:27;;;;;;;;;7.50;7.50;;;;;13.39;69.41;102488.16;5047186;28;9694;-67
2023/06/01 00:16:55;;;;;;;;;6.00;6.00;;;;;13.37;69.39;102498.31;5067119;28;10446;-66
2023/06/01 00:19:25;;;;;;;;;6.75;6.00;;;;;13.33;69.54;102481.59;5056824;28;9718;-67
2023/06/01 00:21:56;;;;;;;;;10.00;6.75;;;;;13.33;69.90;102484.28;5039117;28;9737;-67
2023/06/01 00:24:23;;;;;;;;;6.00;6.00;;;;;13.38;70.02;102483.78;5044774;28;9755;-66
2023/06/01 00:26:50;;;;;;;;;11.50;10.00;;;;;13.39;69.84;102476.50;5054934;28;10398;-66
2023/06/01 00:29:17;;;;;;;;;8.25;8.25;;;;;13.42;69.90;102478.88;5063556;28;9705;-66
2023/06/01 00:31:44;;;;;;;;;5.50;5.50;;;;;13.41;70.14;102477.16;5045350;28;10819;-66
2023/06/01 00:34:11;;;;;;;;;8.25;7.50;;;;;13.45;70.03;102470.38;5055171;28;9756;-68
2023/06/01 00:36:38;;;;;;;;;9.25;7.00;;;;;13.33;69.03;102481.59;5049139;28;9582;-66
2023/06/01 00:39:04;;;;;;;;;5.50;5.50;;;;;13.23;69.97;102482.78;5034071;28;9664;-68
2023/06/01 00:41:32;;;;;;;;;6.50;6.50;;;;;13.19;70.43;102484.94;5066302;28;9760;-67
2023/06/01 00:43:58;;;;;;;;;9.75;7.75;;;;;13.12;70.13;102481.22;5046827;28;9844;-66
2023/06/01 00:46:27;;;;;;;;;9.00;6.25;;;;;13.21;70.67;102484.78;5071873;28;10342;-67
2023/06/01 00:48:54;;;;;;;;;6.00;6.00;;;;;13.24;70.16;102488.00;5060141;28;9667;-67
2023/06/01 00:51:20;;;;;;;;;7.75;6.00;;;;;13.24;70.06;102476.34;5042326;28;9755;-69
2023/06/01 00:53:48;;;;;;;;;7.75;7.25;;;;;13.26;69.93;102474.34;5048390;28;9691;-67
2023/06/01 00:56:14;;;;;;;;;7.00;7.00;;;;;13.33;69.73;102475.34;5067523;28;9860;-67
2023/06/01 00:58:42;;;;;;;;;8.50;8.50;;;;;13.34;69.83;102472.44;5056862;28;9788;-68
2023/06/01 01:01:18;;;;;;;;;9.75;7.00;;;;;13.27;69.47;102476.84;5050259;28;9969;-66
2023/06/01 01:03:47;;;;;;;;;6.50;4.50;;;;;13.26;69.88;102469.75;5052363;28;9816;-67
2023/06/01 01:06:25;;;;;;;;;6.75;6.00;;;;;13.18;69.71;102477.84;5054268;28;9852;-68
2023/06/01 01:09:21;;;;;;;;;8.75;6.25;;;;;13.15;69.56;102475.50;5063447;28;9662;-67
2023/06/01 01:11:59;;;;;;;;;10.75;7.00;;;;;13.13;69.61;102477.53;5054432;28;9832;-66
2023/06/01 01:14:50;;;;;;;;;8.75;8.00;;;;;13.15;69.73;102483.59;5035832;28;9698;-67
2023/06/01 01:17:32;;;;;;;;;7.50;7.00;;;;;13.05;69.35;102481.09;5041320;28;9752;-67
2023/06/01 01:20:08;;;;;;;;;8.00;8.00;;;;;13.09;69.57;102481.59;5066472;28;9818;-66
2023/06/01 01:22:38;;;;;;;;;8.50;8.25;;;;;13.11;69.63;102474.97;5047623;28;9825;-66
2023/06/01 01:25:20;;;;;;;;;6.00;5.00;;;;;13.10;69.71;102477.88;5049532;28;9819;-66
2023/06/01 01:28:10;;;;;;;;;8.00;6.00;;;;;13.13;69.84;102465.88;5048486;28;9948;-68
2023/06/01 01:30:40;;;;;;;;;10.50;8.25;;;;;13.09;69.72;102468.06;5045930;28;9875;-68
2023/06/01 01:33:07;;;;;;;;;8.25;6.75;;;;;13.13;69.80;102471.28;5064209;28;10750;-67
2023/06/01 01:35:34;;;;;;;;;8.00;8.00;;;;;13.12;69.75;102473.13;5051011;28;9789;-67
2023/06/01 01:38:01;;;;;;;;;6.75;6.75;;;;;13.10;69.56;102484.13;5045245;28;9794;-67
2023/06/01 01:40:28;;;;;;;;;9.50;6.00;;;;;13.07;69.85;102475.50;5055343;28;10708;-67
2023/06/01 01:42:55;;;;;;;;;9.50;6.00;;;;;13.02;69.98;102478.72;5069082;28;9667;-67
2023/06/01 01:45:22;;;;;;;;;12.00;11.75;;;;;12.95;69.27;102468.75;5046002;28;9730;-66
2023/06/01 01:47:52;;;;;;;;;9.50;7.00;;;;;12.91;70.44;102468.25;5051318;28;9924;-67
2023/06/01 01:50:22;;;;;;;;;5.25;5.00;;;;;12.93;70.56;102476.19;5054064;28;9929;-67
2023/06/01 01:52:51;;;;;;;;;8.75;8.75;;;;;12.90;70.48;102471.97;5044891;28;9734;-66
2023/06/01 01:55:23;;;;;;;;;15.25;13.25;;;;;12.81;70.71;102473.84;5057531;28;10597;-66
2023/06/01 01:57:51;;;;;;;;;12.75;11.00;;;;;12.79;71.00;102467.75;5046550;28;10276;-68
2023/06/01 02:00:19;;;;;;;;;11.00;10.00;;;;;12.77;70.77;102467.09;5056169;28;10014;-67
2023/06/01 02:02:46;;;;;;;;;6.75;6.75;;;;;12.69;70.83;102461.69;5053551;28;9987;-67
2023/06/01 02:05:15;;;;;;;;;7.50;7.50;;;;;12.73;71.06;102464.88;5041361;28;10068;-68
2023/06/01 02:07:41;;;;;;;;;9.25;6.75;;;;;12.77;71.30;102461.69;5040522;28;9945;-67
2023/06/01 02:10:08;;;;;;;;;8.25;8.25;;;;;12.87;71.24;102454.22;5062326;28;9970;-67
2023/06/01 02:12:34;;;;;;;;;11.00;7.25;;;;;12.95;71.42;102458.78;5049627;28;10182;-66
2023/06/01 02:15:01;;;;;;;;;7.75;6.00;;;;;12.97;71.19;102466.75;5039379;28;10603;-68
2023/06/01 02:17:28;;;;;;;;;7.25;6.00;;;;;13.00;70.90;102458.25;5047899;28;9951;-66
2023/06/01 02:19:55;;;;;;;;;6.75;6.75;;;;;13.01;70.29;102459.97;5049858;28;9955;-67
2023/06/01 02:22:21;;;;;;;;;6.25;5.25;;;;;12.98;70.63;102463.84;5047895;28;9917;-67
2023/06/01 02:24:48;;;;;;;;;4.75;4.75;;;;;12.96;70.77;102459.63;5061109;28;10128;-67
2023/06/01 02:27:14;;;;;;;;;10.00;7.75;;;;;12.98;70.59;102463.84;5047136;28;9938;-68
2023/06/01 02:29:41;;;;;;;;;2.00;1.75;;;;;12.99;70.17;102460.13;5055705;28;10578;-68
2023/06/01 02:32:08;;;;;;;;;10.75;10.25;;;;;12.97;70.40;102458.63;5048537;28;9827;-68
2023/06/01 02:34:36;;;;;;;;;9.50;7.50;;;;;12.95;70.18;102453.38;5044069;28;9777;-67
2023/06/01 02:37:04;;;;;;;;;8.75;8.75;;;;;12.98;70.52;102452.19;5047106;28;9683;-67
2023/06/01 02:39:31;;;;;;;;;8.25;6.00;;;;;12.97;70.36;102454.06;5041906;28;9843;-67
2023/06/01 02:41:58;;;;;;;;;8.50;6.75;;;;;13.00;70.19;102460.97;5051856;28;9614;-66
2023/06/01 02:44:24;;;;;;;;;7.00;5.00;;;;;12.95;70.24;102453.38;5045116;28;9803;-69
2023/06/01 02:46:51;;;;;;;;;7.00;6.00;;;;;12.92;70.39;102458.28;5038164;28;9674;-67
2023/06/01 02:49:17;;;;;;;;;8.00;6.25;;;;;12.87;70.47;102459.63;5047469;28;9840;-67
2023/06/01 02:51:44;;;;;;;;;5.25;5.25;;;;;12.85;70.82;102456.28;5052902;28;9769;-68
2023/06/01 02:54:22;;;;;;;;;6.75;6.50;;;;;12.89;70.81;102451.38;5051071;28;9778;-69
2023/06/01 02:56:50;;;;;;;;;5.50;5.50;;;;;12.89;71.11;102459.47;5049426;28;9678;-67
2023/06/01 02:59:20;;;;;;;;;5.25;4.00;;;;;12.86;70.48;102454.41;5053700;28;9831;-66
2023/06/01 03:01:52;;;;;;;;;11.50;9.50;;;;;12.82;70.08;102462.00;5041091;28;9759;-67
2023/06/01 03:04:20;;;;;;;;;6.00;6.00;;;;;12.85;70.96;102464.38;5060038;28;9909;-68
2023/06/01 03:06:49;;;;;;;;;8.75;6.25;;;;;12.86;70.62;102449.84;5046041;28;9916;-66
2023/06/01 03:09:36;;;;;;;;;10.00;8.75;;;;;12.82;70.28;102456.59;5051104;28;9942;-69
2023/06/01 03:12:10;;;;;;;;;7.00;5.75;;;;;12.77;70.65;102450.88;5057586;28;9974;-68
2023/06/01 03:14:37;;;;;;;;;9.50;8.25;;;;;12.75;70.73;102452.88;5040187;28;9915;-67
2023/06/01 03:17:05;;;;;;;;;9.25;5.75;;;;;12.75;70.62;102452.03;5063396;28;9952;-67
2023/06/01 03:19:32;;;;;;;;;12.75;9.25;;;;;12.75;70.42;102458.28;5049546;28;9744;-67
2023/06/01 03:22:01;;;;;;;;;11.50;9.00;;;;;12.75;70.59;102444.78;5052014;28;10625;-67
2023/06/01 03:24:28;;;;;;;;;11.75;10.50;;;;;12.71;69.98;102443.41;5048611;28;9843;-66
2023/06/01 03:27:01;;;;;;;;;13.00;13.00;;;;;12.61;70.21;102445.47;5045642;28;10139;-67
2023/06/01 03:29:30;;;;;;;;;13.00;9.00;;;;;12.55;70.30;102435.31;5037093;28;10176;-67
2023/06/01 03:32:00;;;;;;;;;9.25;9.00;;;;;12.48;70.91;102439.72;5051079;28;9876;-67
2023/06/01 03:34:29;;;;;;;;;10.75;10.00;;;;;12.48;70.69;102437.03;5050649;28;10216;-69
2023/06/01 03:36:56;;;;;;;;;12.75;11.00;;;;;12.51;70.71;102439.38;5065500;28;10643;-69
2023/06/01 03:39:22;;;;;;;;;8.75;6.50;;;;;12.49;71.06;102430.59;5044994;28;10101;-68
2023/06/01 03:41:49;;;;;;;;;14.50;10.00;;;;;12.50;69.82;102432.28;5055168;28;9899;-68
2023/06/01 03:44:15;;;;;;;;;11.00;11.00;;;;;12.38;70.68;102437.16;5066009;28;10126;-70
2023/06/01 03:46:45;;;;;;;;;12.00;11.25;;;;;12.41;70.74;102438.69;5047134;28;10042;-69
2023/06/01 03:49:12;;;;;;;;;16.50;12.00;;;;;12.38;70.80;102440.69;5066019;28;10198;-69
2023/06/01 03:51:38;;;;;;;;;10.50;8.25;;;;;12.41;71.20;102452.19;5047624;28;10176;-69
2023/06/01 03:54:05;;;;;;;;;10.00;9.75;;;;;12.44;71.00;102444.63;5063916;28;10144;-68
2023/06/01 03:56:31;;;;;;;;;11.25;9.25;;;;;12.46;71.04;102441.72;5056522;28;10219;-68
2023/06/01 03:59:01;;;;;;;;;10.50;8.00;;;;;12.48;70.90;102445.13;5047133;28;9991;-69
2023/06/01 04:01:29;;;;;;;;;11.75;9.75;;;;;12.47;70.69;102443.41;5043795;28;10147;-69
2023/06/01 04:03:56;;;;;;;;;6.00;6.00;;;;;12.50;71.08;102446.63;5043773;28;10214;-68
2023/06/01 04:06:23;;;;;;;;;10.00;9.25;;;;;12.50;70.66;102443.94;5042177;28;10081;-69
2023/06/01 04:08:55;;;;;;;;;8.25;7.25;;;;;12.52;70.92;102449.19;5042526;28;10127;-69
2023/06/01 04:11:22;;;;;;;;;7.25;7.25;;;;;12.52;70.63;102447.31;5034658;28;10241;-68
2023/06/01 04:13:50;;;;;;;;;7.00;5.50;;;;;12.53;70.83;102443.59;5050653;28;9994;-68
2023/06/01 04:16:18;;;;;;;;;12.00;12.00;;;;;12.54;70.54;102439.03;5044079;28;10084;-68
2023/06/01 04:18:44;;;;;;;;;8.00;7.00;;;;;12.52;70.32;102443.78;5021923;28;10228;-67
2023/06/01 04:21:23;;;;;;;;;7.75;5.00;;;;;12.52;70.13;102438.38;5051890;28;10063;-69
2023/06/01 04:23:50;;;;;;;;;7.00;7.00;;;;;12.49;70.29;102436.00;5060309;28;9988;-67
2023/06/01 04:26:18;;;;;;;;;9.25;7.25;;;;;12.42;70.37;102434.97;5052189;28;10066;-68
2023/06/01 04:28:46;;;;;;;;;9.00;8.00;;;;;12.44;70.44;102427.56;5046492;28;10071;-67
2023/06/01 04:31:19;;;;;;;;;7.25;6.50;;;;;12.49;70.81;102436.00;5053191;28;10117;-67
2023/06/01 04:33:53;;;;;;;;;12.25;10.00;;;;;12.48;70.45;102437.03;5043110;28;10154;-67
2023/06/01 04:36:23;;;;;;;;;10.00;7.75;;;;;12.51;70.35;102432.09;5046071;28;10135;-68
2023/06/01 04:38:53;;;;;;;;;8.50;6.75;;;;;12.53;70.51;102440.91;5062866;28;10077;-68
2023/06/01 04:41:21;;;;;;;;;7.50;7.50;;;;;12.57;70.49;102442.25;5041795;28;10866;-68
2023/06/01 04:43:52;;;;;;;;;12.50;10.25;;;;;12.61;70.62;102442.75;5046418;28;9976;-67
2023/06/01 04:46:23;;;;;;;;;9.00;9.00;;;;;12.56;70.17;102434.31;5044035;28;10153;-69
2023/06/01 04:48:53;;;;;;;;;9.75;9.00;;;;;12.55;70.55;102438.84;5051649;28;10208;-68
2023/06/01 04:51:19;;;;;;;;;9.75;6.75;;;;;12.61;70.47;102442.75;5064818;28;9965;-68
2023/06/01 04:53:51;;;;;;;;;10.50;8.50;;;;;12.68;70.66;102438.38;5049175;28;10789;-68
2023/06/01 04:56:20;;;;;;;;;8.25;8.00;;;;;12.70;70.03;102436.34;5040213;28;9979;-68
2023/06/01 04:58:49;;;;;;;;;10.75;10.00;;;;;12.62;69.91;102439.03;5055505;28;10799;-69
2023/06/01 05:01:18;;;;;;;;;10.25;10.00;;;;;12.58;70.62;102445.78;5050183;28;10155;-68
2023/06/01 05:03:45;;;;;;;;;10.50;9.75;;;;;12.53;70.69;102440.91;5043072;28;10089;-69
2023/06/01 05:06:13;;;;;;;;;13.25;9.75;;;;;12.57;71.02;102449.50;5047134;28;10080;-68
2023/06/01 05:08:41;;;;;;;;;8.50;6.25;;;;;12.59;70.86;102447.47;5051430;28;10091;-68
2023/06/01 05:11:09;;;;;;;;;9.00;8.00;;;;;12.57;70.44;102444.09;5045332;28;9923;-69
2023/06/01 05:13:40;;;;;;;;;11.50;9.75;;;;;12.59;70.60;102444.78;5032077;28;10058;-69
2023/06/01 05:16:08;;;;;;;;;9.50;5.50;;;;;12.60;70.90;102455.44;5061663;28;10001;-68
2023/06/01 05:18:35;;;;;;;;;7.50;6.50;;;;;12.68;70.91;102456.41;5055922;28;10052;-69
2023/06/01 05:21:02;;;;;;;;;7.75;5.25;;;;;12.73;70.50;102454.91;5064215;28;10640;-68
2023/06/01 05:23:29;;;;;;;;;8.00;6.50;;;;;12.74;70.45;102461.16;5069370;28;10016;-69
2023/06/01 05:26:02;;;;;;;;;5.00;5.00;;;;;12.67;70.53;102455.56;5053147;28;11012;-69
2023/06/01 05:28:33;;;;;;;;;7.50;7.50;;;;;12.70;70.34;102457.94;5042170;28;10008;-69
2023/06/01 05:31:02;;;;;;;;;6.00;5.25;;;;;12.69;70.45;102450.03;5044754;28;10041;-69
2023/06/01 05:33:33;;;;;;;;;6.25;6.25;;;;;12.69;70.60;102450.03;5059234;28;10026;-68
2023/06/01 05:35:59;;;;;;;;;9.50;8.00;;;;;12.65;70.52;102454.91;5065612;28;9990;-69
2023/06/01 05:38:26;;;;;;;;;10.75;7.00;;;;;12.66;70.53;102451.19;5057928;28;10947;-69
2023/06/01 05:40:53;;;;;;;;;6.75;5.75;;;;;12.67;69.92;102455.56;5053086;28;10055;-68
2023/06/01 05:43:19;;;;;;;;;8.00;8.00;;;;;12.64;70.32;102455.94;5031034;28;9851;-69
2023/06/01 05:45:48;;;;;;;;;6.25;6.00;;;;;12.68;70.21;102454.59;5048806;28;10184;-69
2023/06/01 05:48:15;;;;;;;;;6.50;6.00;;;;;12.74;70.32;102455.75;5070186;28;9874;-68
2023/06/01 05:50:46;;;;;;;;;5.75;5.75;;;;;12.78;70.11;102452.53;5053339;28;10127;-69
2023/06/01 05:53:12;;;;;;;;;8.75;8.50;;;;;12.81;69.90;102451.38;5051066;28;9909;-68
2023/06/01 05:55:40;;;;;;;;;8.50;6.50;;;;;12.83;70.00;102455.56;5034503;28;10118;-68
2023/06/01 05:58:06;;;;;;;;;6.00;4.75;;;;;12.83;70.01;102454.72;5040516;28;10012;-69
2023/06/01 06:00:35;;;;;;;;;5.00;5.00;;;;;12.80;70.11;102461.34;5052362;28;10007;-69
2023/06/01 06:03:04;;;;;;;;;8.00;7.00;;;;;12.81;69.99;102448.66;5038713;28;9986;-68
2023/06/01 06:05:30;;;;;;;;;9.00;5.00;;;;;12.81;70.05;102445.97;5050681;28;9999;-69
2023/06/01 06:07:57;;;;;;;;;5.50;4.75;;;;;12.78;70.36;102446.31;5051731;28;9938;-69
2023/06/01 06:10:24;;;;;;;;;13.00;10.00;;;;;12.81;70.01;102457.63;5052032;28;9956;-69
2023/06/01 06:12:50;;;;;;;;;6.00;6.00;;;;;12.81;69.86;102449.50;5059444;28;9934;-69
2023/06/01 06:15:17;;;;;;;;;7.25;7.25;;;;;12.80;69.50;102442.44;5070149;28;9833;-69
2023/06/01 06:17:43;;;;;;;;;4.75;4.75;;;;;12.83;69.06;102441.22;5065086;28;9952;-70
2023/06/01 06:20:11;;;;;;;;;5.00;5.00;;;;;12.87;69.36;102465.03;5068203;28;10053;-69
2023/06/01 06:22:38;;;;;;;;;5.00;4.00;;;;;12.87;69.06;102448.81;5069027;28;9840;-69
2023/06/01 06:25:06;;;;;;;;;9.00;7.00;;;;;12.87;69.04;102462.34;5053198;28;9862;-70
2023/06/01 06:27:32;;;;;;;;;7.00;6.00;;;;;12.81;68.54;102457.63;5050643;28;10036;-69
2023/06/01 06:29:59;;;;;;;;;7.25;6.50;;;;;12.81;68.65;102457.63;5071591;28;9868;-69
2023/06/01 06:32:25;;;;;;;;;3.00;2.00;;;;;12.87;68.46;102464.19;5055492;28;9854;-69
2023/06/01 06:34:52;;;;;;;;;4.25;4.25;;;;;12.90;68.28;102458.47;5071200;28;9827;-69
2023/06/01 06:37:18;;;;;;;;;5.50;5.50;;;;;12.89;68.15;102456.78;5053087;28;9674;-69
2023/06/01 06:39:45;;;;;;;;;6.00;5.00;;;;;12.91;68.03;102460.13;5059951;28;9859;-69
2023/06/01 06:42:11;;;;;;;;;7.25;7.25;;;;;12.89;67.95;102464.88;5069849;28;9746;-70
2023/06/01 06:44:38;;;;;;;;;5.50;2.50;;;;;12.89;68.07;102456.78;5071130;28;9942;-70
2023/06/01 06:47:05;;;;;;;;;7.00;6.00;;;;;12.92;68.44;102458.28;5070080;28;9904;-69
2023/06/01 06:49:31;;;;;;;;;5.25;5.00;;;;;12.98;68.67;102465.72;5050013;28;10026;-70
2023/06/01 06:51:58;;;;;;;;;5.00;5.00;;;;;13.03;68.01;102461.47;5050402;28;9830;-70
2023/06/01 06:54:24;;;;;;;;;5.50;5.00;;;;;13.00;68.01;102461.81;5069738;28;9829;-70
2023/06/01 06:56:51;;;;;;;;;7.00;6.00;;;;;13.11;69.35;102458.75;5071099;28;9830;-69
2023/06/01 06:59:18;;;;;;;;;5.50;5.50;;;;;13.13;68.24;102461.31;5070239;28;9858;-69
2023/06/01 07:01:44;;;;;;;;;6.00;6.00;;;;;13.14;68.00;102459.44;5053373;28;9662;-70
2023/06/01 07:04:11;;;;;;;;;7.75;5.50;;;;;13.14;68.28;102462.16;5052914;28;9920;-70
2023/06/01 07:06:38;;;;;;;;;7.50;5.50;;;;;13.13;68.15;102461.31;5051132;28;10583;-69
2023/06/01 07:09:05;;;;;;;;;4.00;4.00;;;;;13.18;68.04;102466.19;5067157;28;9694;-70
2023/06/01 07:11:32;;;;;;;;;8.25;5.00;;;;;13.13;67.67;102457.78;5052958;28;9783;-69
2023/06/01 07:13:59;;;;;;;;;6.50;4.75;;;;;13.11;67.87;102466.88;5070106;28;9756;-70
2023/06/01 07:16:26;;;;;;;;;3.00;3.00;;;;;13.14;67.95;102463.00;5070655;28;9873;-70
2023/06/01 07:18:53;;;;;;;;;4.25;4.25;;;;;13.18;67.50;102467.03;5058432;28;9662;-70
2023/06/01 07:21:19;;;;;;;;;7.00;5.00;;;;;13.15;66.85;102459.25;5070829;28;9808;-69
2023/06/01 07:23:46;;;;;;;;;2.00;2.00;;;;;13.17;67.28;102468.06;5049474;28;9810;-69
2023/06/01 07:26:13;;;;;;;;;6.00;4.00;;;;;13.24;67.22;102460.97;5050472;28;9744;-70
2023/06/01 07:28:41;;;;;;;;;4.75;4.75;;;;;13.31;66.98;102466.53;5050923;28;9693;-70
2023/06/01 07:31:08;;;;;;;;;4.50;4.50;;;;;13.32;67.08;102466.34;5050598;28;9813;-69
2023/06/01 07:33:38;;;;;;;;;3.50;3.50;;;;;13.33;66.95;102467.22;5044767;28;9671;-70
2023/06/01 07:36:06;;;;;;;;;4.50;4.50;;;;;13.27;67.01;102471.44;5045953;28;9599;-69
2023/06/01 07:38:33;;;;;;;;;3.75;3.75;;;;;13.27;67.64;102465.19;5039537;28;9785;-70
2023/06/01 07:41:00;;;;;;;;;4.75;4.00;;;;;13.28;67.40;102466.88;5039238;28;9747;-69
2023/06/01 07:43:27;;;;;;;;;5.25;4.00;;;;;13.32;66.66;102463.66;5069307;28;9774;-70
2023/06/01 07:45:54;;;;;;;;;4.25;3.00;;;;;13.35;66.91;102470.59;5069705;28;9729;-69
2023/06/01 07:48:21;;;;;;;;;2.25;2.00;;;;;13.29;67.09;102465.88;5058261;28;9782;-70
2023/06/01 07:50:47;;;;;;;;;7.25;5.00;;;;;13.30;66.64;102465.69;5061406;28;9645;-70
2023/06/01 07:53:14;;;;;;;;;9.75;7.25;;;;;13.34;66.69;102468.91;5069245;28;9591;-69
2023/06/01 07:55:41;;;;;;;;;4.50;2.00;;;;;13.45;66.63;102471.25;5069353;28;9696;-69
2023/06/01 07:58:08;;;;;;;;;5.75;5.75;;;;;13.53;66.79;102471.22;5049586;28;9610;-70
2023/06/01 08:00:34;;;;;;;;;4.25;4.00;;;;;13.51;66.22;102478.66;5051740;28;9664;-70
2023/06/01 08:03:05;;;;;;;;;4.25;3.00;;;;;13.46;66.08;102466.69;5060644;28;9606;-70
2023/06/01 08:05:34;;;;;;;;;7.50;4.00;;;;;13.51;66.04;102467.84;5048045;28;9758;-69
2023/06/01 08:08:04;;;;;;;;;8.00;6.50;;;;;13.52;66.22;102463.25;5058629;28;9780;-70
2023/06/01 08:10:30;;;;;;;;;5.50;3.75;;;;;13.56;65.79;102460.03;5050166;28;10624;-70
2023/06/01 08:12:57;;;;;;;;;5.25;3.50;;;;;13.56;65.96;102464.59;5055299;28;9691;-69
2023/06/01 08:15:26;;;;;;;;;6.00;6.00;;;;;13.56;65.51;102457.31;5049810;28;9678;-70
2023/06/01 08:17:52;;;;;;;;;4.75;4.75;;;;;13.53;65.48;102459.53;5057161;28;9773;-70
2023/06/01 08:20:22;;;;;;;;;7.50;5.25;;;;;13.57;65.55;102467.16;5069479;28;9670;-70
2023/06/01 08:22:50;;;;;;;;;4.00;3.00;;;;;13.55;65.05;102471.03;5062306;28;9547;-69
2023/06/01 08:25:17;;;;;;;;;6.00;5.00;;;;;13.56;65.23;102464.59;5062900;28;10160;-70
2023/06/01 08:27:44;;;;;;;;;8.75;5.00;;;;;13.59;65.47;102456.16;5059676;28;9703;-70
2023/06/01 08:30:11;;;;;;;;;7.00;5.00;;;;;13.63;65.16;102457.47;5049559;28;9661;-70
2023/06/01 08:32:38;;;;;;;;;5.50;5.50;;;;;13.65;65.41;102447.31;5054995;28;10252;-70
2023/06/01 08:35:08;;;;;;;;;7.25;5.00;;;;;13.69;65.68;102453.22;5069537;28;9565;-70
2023/06/01 08:37:35;;;;;;;;;2.00;2.00;;;;;13.74;65.35;102449.00;5064485;28;9584;-69
2023/06/01 08:40:06;;;;;;;;;6.50;6.25;;;;;13.79;64.77;102446.59;5049837;28;9529;-69
2023/06/01 08:42:46;;;;;;;;;6.50;3.50;;;;;13.82;64.30;102448.13;5055263;28;10385;-69
2023/06/01 08:45:13;;;;;;;;;5.50;5.00;;;;;13.83;64.14;102447.91;5055788;28;9733;-70
2023/06/01 08:47:40;;;;;;;;;4.75;3.25;;;;;13.83;64.51;102456.03;5065165;28;9771;-69
2023/06/01 08:50:11;;;;;;;;;5.00;4.00;;;;;13.89;64.10;102451.78;5053750;28;9731;-70
2023/06/01 08:52:38;;;;;;;;;6.25;5.00;;;;;13.88;64.42;102455.50;5041333;28;9739;-69
2023/06/01 08:55:05;;;;;;;;;8.50;6.25;;;;;13.79;63.90;102443.03;5073375;28;10508;-70
2023/06/01 08:57:32;;;;;;;;;4.75;4.75;;;;;13.75;64.15;102437.13;5065098;28;9826;-68
2023/06/01 08:59:59;;;;;;;;;6.00;6.00;;;;;13.85;64.51;102439.63;5053441;28;9771;-69
2023/06/01 09:02:27;;;;;;;;;8.25;7.25;;;;;13.90;63.52;102442.66;5057051;28;9776;-69
2023/06/01 09:04:54;;;;;;;;;6.00;3.50;;;;;13.84;63.78;102449.59;5073188;28;9915;-70
2023/06/01 09:07:20;;;;;;;;;6.25;4.50;;;;;13.97;63.92;102442.78;5069792;28;9694;-68
2023/06/01 09:09:47;;;;;;;;;4.75;4.75;;;;;14.04;63.41;102443.75;5035626;28;9701;-69
2023/06/01 09:12:29;;;;;;;;;9.50;6.00;;;;;14.02;63.23;102462.91;5058606;28;9721;-69
2023/06/01 09:15:16;;;;;;;;;5.00;5.00;;;;;14.01;63.17;102455.78;5035217;28;10550;-70
2023/06/01 09:18:05;;;;;;;;;5.25;4.75;;;;;14.04;63.11;102447.31;5045118;28;9927;-69
2023/06/01 09:20:32;;;;;;;;;5.75;4.75;;;;;14.08;63.59;102451.34;5052311;28;9684;-69
2023/06/01 09:22:58;;;;;;;;;5.75;5.75;;;;;14.16;63.28;102453.16;5072493;28;9790;-69
2023/06/01 09:25:27;;;;;;;;;4.00;4.00;;;;;14.18;63.43;102439.44;5055109;28;9741;-70
2023/06/01 09:27:55;;;;;;;;;4.75;4.75;;;;;14.24;63.24;102444.97;5058764;28;9676;-70
2023/06/01 09:30:24;;;;;;;;;9.50;6.00;;;;;14.25;62.63;102437.69;5034831;28;9669;-69
2023/06/01 09:32:52;;;;;;;;;5.25;5.25;;;;;14.29;62.74;102434.44;5054862;28;9819;-70
2023/06/01 09:35:39;;;;;;;;;6.00;5.00;;;;;14.36;62.44;102431.88;5072565;28;9767;-70
2023/06/01 09:38:06;;;;;;;;;6.00;5.00;;;;;14.34;62.17;102434.78;5072489;28;9622;-70
2023/06/01 09:40:33;;;;;;;;;6.00;6.00;;;;;14.41;62.86;102432.16;5072857;28;9662;-70
2023/06/01 09:43:02;;;;;;;;;6.00;6.00;;;;;14.48;62.60;102433.13;5064492;28;9672;-71
2023/06/01 09:45:32;;;;;;;;;7.75;2.00;;;;;14.54;62.80;102428.88;5052337;28;9678;-70
2023/06/01 09:48:17;;;;;;;;;4.50;3.00;;;;;14.67;62.56;102423.72;5052525;28;9557;-70
2023/06/01 09:50:45;;;;;;;;;5.00;4.75;;;;;14.73;62.50;102425.66;5051531;28;9470;-70
2023/06/01 09:53:11;;;;;;;;;5.50;5.00;;;;;14.77;62.37;102424.28;5062626;28;9898;-71
2023/06/01 09:56:00;;;;;;;;;8.75;8.75;;;;;14.84;61.78;102425.22;5071029;28;9515;-69
2023/06/01 09:58:27;;;;;;;;;7.00;7.00;;;;;14.86;61.63;102425.03;5050959;28;9627;-70
2023/06/01 10:00:54;;;;;;;;;5.00;4.00;;;;;14.83;61.40;102420.84;5052378;28;9724;-69
2023/06/01 10:03:22;;;;;;;;;7.00;7.00;;;;;14.74;61.47;102412.94;5054119;28;9428;-70
2023/06/01 10:05:49;;;;;;;;;3.00;3.00;;;;;14.79;61.84;102416.81;5050712;28;9639;-70
2023/06/01 10:08:17;;;;;;;;;5.50;5.50;;;;;14.88;61.44;102411.31;5053721;28;9599;-71
2023/06/01 10:10:47;;;;;;;;;4.50;4.50;;;;;14.85;60.97;102423.38;5054455;28;9660;-70
2023/06/01 10:13:14;;;;;;;;;4.25;4.00;;;;;14.84;61.03;102414.38;5059014;28;9490;-70
2023/06/01 10:15:41;;;;;;;;;5.67;5.00;;;;;14.86;61.06;102408.78;5051821;28;9510;-70
2023/06/01 10:18:08;;;;;;;;;7.00;5.00;;;;;14.92;60.94;102418.91;5061434;28;9427;-70
2023/06/01 10:20:36;;;;;;;;;6.25;5.00;;;;;14.97;60.98;102419.19;5071804;28;10148;-70
2023/06/01 10:23:04;;;;;;;;;9.75;6.00;;;;;15.04;61.26;102419.28;5062483;28;9441;-70
2023/06/01 10:25:49;;;;;;;;;6.00;5.00;;;;;15.16;60.92;102420.50;5053935;28;9529;-69
2023/06/01 10:28:24;;;;;;;;;7.25;6.00;;;;;15.18;60.55;102421.16;5042277;28;10179;-70
2023/06/01 10:31:28;;;;;;;;;5.50;4.00;;;;;15.19;60.43;102416.56;5033421;28;9601;-69
2023/06/01 10:33:55;;;;;;;;;6.00;4.00;;;;;15.21;60.52;102418.09;5067374;28;10257;-70
2023/06/01 10:36:22;;;;;;;;;5.00;5.00;;;;;15.31;59.79;102415.06;5071406;28;9357;-71
2023/06/01 10:38:48;;;;;;;;;11.00;8.00;;;;;15.28;59.33;102410.88;5024403;28;9517;-70
2023/06/01 10:41:30;;;;;;;;;6.00;5.33;;;;;15.22;59.46;102417.03;5051612;28;9371;-69
2023/06/01 10:43:57;;;;;;;;;6.50;6.00;;;;;15.19;59.03;102412.00;5051275;28;9305;-70
2023/06/01 10:46:30;;;;;;;;;6.33;4.00;;;;;15.26;59.59;102414.81;5051100;28;9359;-70
2023/06/01 10:48:57;;;;;;;;;3.00;3.00;;;;;15.28;59.75;102410.06;5063294;28;9455;-70
2023/06/01 10:51:24;;;;;;;;;5.00;5.00;;;;;15.29;59.82;102411.72;5038772;28;9318;-70
2023/06/01 10:53:55;;;;;;;;;6.00;2.67;;;;;15.28;59.48;102401.91;5066511;28;9438;-70
2023/06/01 10:56:26;;;;;;;;;2.67;2.67;;;;;15.32;59.59;102406.78;5053859;28;10101;-70
2023/06/01 10:59:08;;;;;;;;;5.50;5.00;;;;;15.30;59.50;102411.53;5049377;28;9313;-70
2023/06/01 11:01:45;;;;;;;;;5.33;2.67;;;;;15.30;59.67;102408.81;5054849;28;9292;-70
2023/06/01 11:04:13;;;;;;;;;5.67;3.00;;;;;15.28;59.88;102405.47;5070097;28;9216;-71
2023/06/01 11:06:42;;;;;;;;;8.67;4.00;;;;;15.25;60.14;102410.41;5070728;28;9228;-70
2023/06/01 11:09:11;;;;;;;;;3.00;3.00;;;;;15.20;60.10;102402.84;5052397;28;9402;-71
2023/06/01 11:11:55;;;;;;;;;3.25;3.25;;;;;15.20;59.68;102399.28;5049257;28;9449;-70
2023/06/01 11:14:24;;;;;;;;;3.00;3.00;;;;;15.11;60.16;102408.53;5070589;28;9461;-70
2023/06/01 11:16:55;;;;;;;;;2.00;2.00;;;;;15.11;60.16;102400.38;5046799;28;9382;-71
2023/06/01 11:19:24;;;;;;;;;2.00;2.00;;;;;15.19;60.53;102397.59;5050706;28;9296;-70
2023/06/01 11:22:03;;;;;;;;;3.00;2.67;;;;;15.20;61.10;102402.00;5032924;28;9303;-71
2023/06/01 11:24:37;;;;;;;;;2.00;2.00;;;;;15.18;61.32;102398.63;5050626;28;9293;-71
2023/06/01 11:27:09;;;;;;;;;2.00;2.00;;;;;15.16;61.86;102406.13;5035265;28;9395;-70
2023/06/01 11:29:35;;;;;;;;;2.00;1.00;;;;;15.11;62.06;102403.97;5050664;28;9958;-70
2023/06/01 11:32:05;;;;;;;;;2.33;2.00;;;;;15.07;62.46;102410.78;5051112;28;9322;-70
2023/06/01 11:34:45;;;;;;;;;3.00;3.00;;;;;15.07;62.45;102405.38;5050421;28;9216;-71
2023/06/01 11:37:17;;;;;;;;;6.50;5.50;;;;;15.00;63.42;102412.56;5052568;28;10084;-71
2023/06/01 11:39:45;;;;;;;;;5.00;5.00;;;;;14.83;63.62;102409.16;5070460;28;9440;-71